Airfield :
LOGIN :

Register | Disclaimer

   EN    FR    IT 

 










Legend :    VFR   Marginal VFR   IFR   Intensive IFR   Very Intensive IFR
Visi :
Ceiling :
>= 8 km
>= 3000ft
5 to 8 km
1000 to 3000 ft
1500m to 5 km
500 to 1000 ft
800 to 1500m
200 to 500 ft
< 800m
< 200 ft
Symbols :   Thunderstorms  Fog  Heavy snow  Heavy precipitations  Wind > 20 kt
SIGMETs :     Misc.  Thunderstorms  Icing  Turbulence  Mountain Waves  Volcanic Ashes






- Airport Elevation : 584 ft


LFPV - Villacoublay Vélizy

CURRENT METAR :
  • 110500Z AUTO 35009KT 320V030 6000 -RA BKN005/// OVC009/// ///TCU 04/03 Q1010 TEMPO 4500 -RA BECMG OVC005

EXPIRED METARs :
  • 110430Z AUTO 36009KT 330V030 5000 -DZ BR BKN005/// OVC011/// ///TCU 04/04 Q1009 BECMG OVC005
  • 110400Z AUTO 35010KT 320V020 4900 BR OVC004/// ///TCU 05/04 Q1009 TEMPO OVC002
  • 110330Z AUTO 35008KT 310V020 5000 -DZ BR BKN004 OVC009 05/05 Q1009 NOSIG
  • 110300Z AUTO 35008KT 320V030 3900 -DZ BR OVC004 06/05 Q1009 NOSIG
  • 110230Z AUTO 33008KT 4800 BR OVC005 06/06 Q1008 NOSIG
  • 110200Z AUTO 35006KT 320V020 5000 BR OVC004 06/06 Q1008

TAF TAF LFPV
Valid from the 11 at 03:00 until the 12 at 03:00 UTC


110200Z 1103/1203 35010KT 6000 OVC005 TX07/1115Z TN01/1203Z
TEMPO 1103/1106 4500 -RA OVC002
BECMG 1108/1110 BKN014
BECMG 1112/1114 BKN035
BECMG 1117/1119 CAVOK



MET'MAP, your aeronautical weather chart ! - Copyright ORBIFLY December 2007 - Disclaimer

ORBIFLY MET'MAP TEAM :

Programming & Development : Alexandra Zaïnal
Concept & original design : Baudouin d'Aumeries
Assistance for programming : Marc-Olivier Méhu
Technical & hardware support : Manuel Goepfert

Contact : metmap@orbifly.com




SOURCES & CREDITS :

   NOAA